Terminal Aerodrome Forecast
Issued by NWS

Home | Current Version | Previous Version | Text Only | Print | Product List | Glossary On
Versions: 1 2 3 4 5 6 7 8 9 10 11 12 13 14 15 16 17
000
FTUS43 KIND 222000 AAB
TAFHUF
TAF AMD
KHUF 222012Z 2220/2318 13010KT 5SM -RA BR BKN025 OVC050
     FM230000 14012KT 2SM -RA BR SCT004 OVC007
     FM230700 18011G17KT 4SM -RA BR OVC008
     FM231200 21007KT 5SM BR VCSH OVC025
     FM231700 24006KT P6SM OVC040=

USA.gov is the U.S. government's official web portal to all federal, state and local government web resources and services.